Time;durP1;ratioP1;P1;durP2;ratioP2;P2;SDS_P1;SDS_P2;PMS_P1;PMS_P2;Temp;Humidity;BMP_temperature;BMP_pressure;BME280_temperature;BME280_humidity;BME280_pressure;Samples;Min_cycle;Max_cycle;Signal;HPM_P1;HPM_P2
2023/05/15 00:01:31;;;;;;;0.98;0.98;;;;;;;10.67;86.09;97078.50;5067607;28;20045;-71
2023/05/15 00:03:58;;;;;;;0.73;0.73;;;;;;;10.63;85.98;97072.75;5070763;28;20106;-72
2023/05/15 00:06:26;;;;;;;0.50;0.50;;;;;;;10.58;86.53;97075.22;5078570;28;20068;-71
2023/05/15 00:08:55;;;;;;;0.63;0.63;;;;;;;10.54;86.26;97068.66;5070732;28;20542;-72
2023/05/15 00:11:26;;;;;;;0.68;0.68;;;;;;;10.56;86.66;97061.25;5073023;28;20099;-72
2023/05/15 00:13:54;;;;;;;0.60;0.60;;;;;;;10.59;85.90;97065.34;5070976;28;20050;-71
2023/05/15 00:16:21;;;;;;;0.60;0.60;;;;;;;10.55;86.05;97064.97;5067784;28;20492;-71
2023/05/15 00:18:49;;;;;;;0.82;0.82;;;;;;;10.54;86.70;97065.16;5070518;28;20036;-71
2023/05/15 00:21:17;;;;;;;0.70;0.70;;;;;;;10.55;86.81;97062.28;5068308;28;20553;-72
2023/05/15 00:23:46;;;;;;;0.68;0.68;;;;;;;10.50;86.89;97055.91;5074037;28;20109;-71
2023/05/15 00:26:15;;;;;;;0.63;0.63;;;;;;;10.47;87.30;97064.34;5071739;28;20479;-71
2023/05/15 00:28:42;;;;;;;0.90;0.90;;;;;;;10.45;87.06;97071.75;5072988;28;20040;-71
2023/05/15 00:31:11;;;;;;;0.70;0.70;;;;;;;10.50;87.06;97066.59;5067835;28;20523;-71
2023/05/15 00:33:39;;;;;;;0.65;0.65;;;;;;;10.57;86.56;97059.41;5073598;28;20045;-70
2023/05/15 00:36:07;;;;;;;0.57;0.57;;;;;;;10.61;85.76;97063.28;5054443;28;20571;-71
2023/05/15 00:38:35;;;;;;;0.65;0.65;;;;;;;10.57;86.18;97052.22;5057764;28;20044;-71
2023/05/15 00:41:04;;;;;;;0.82;0.82;;;;;;;10.49;86.15;97054.28;5067437;28;20040;-72
2023/05/15 00:43:34;;;;;;;0.70;0.70;;;;;;;10.52;86.08;97056.53;5062636;28;20095;-70
2023/05/15 00:46:02;;;;;;;0.55;0.55;;;;;;;10.57;86.10;97054.91;5071603;28;20075;-69
2023/05/15 00:48:31;;;;;;;0.57;0.57;;;;;;;10.45;86.06;97053.06;5069123;28;20166;-72
2023/05/15 00:50:59;;;;;;;0.50;0.50;;;;;;;10.32;86.75;97053.88;5067701;28;20083;-72
2023/05/15 00:53:27;;;;;;;0.10;0.10;;;;;;;10.50;86.21;97050.59;5070724;28;20454;-70
2023/05/15 00:55:57;;;;;;;0.60;0.60;;;;;;;10.50;85.57;97040.72;5066236;28;20508;-70
2023/05/15 00:58:25;;;;;;;0.60;0.60;;;;;;;10.58;85.62;97045.88;5067861;28;20048;-70
2023/05/15 01:00:53;;;;;;;0.60;0.60;;;;;;;10.58;85.36;97042.38;5049920;28;20487;-71
2023/05/15 01:03:21;;;;;;;0.50;0.50;;;;;;;10.67;84.84;97041.13;5069791;28;20071;-71
2023/05/15 01:05:49;;;;;;;0.65;0.65;;;;;;;10.53;85.16;97040.31;5057282;28;20141;-69
2023/05/15 01:08:21;;;;;;;0.68;0.68;;;;;;;10.50;85.17;97037.25;5063371;28;20519;-71
2023/05/15 01:10:51;;;;;;;0.60;0.60;;;;;;;10.63;84.95;97043.38;5066866;28;20037;-72
2023/05/15 01:13:20;;;;;;;0.82;0.82;;;;;;;10.61;85.06;97034.75;5068559;28;20103;-71
2023/05/15 01:15:49;;;;;;;0.88;0.88;;;;;;;10.58;85.09;97042.38;5072546;28;20496;-71
2023/05/15 01:18:17;;;;;;;0.73;0.73;;;;;;;10.50;85.50;97031.91;5065587;28;20040;-72
2023/05/15 01:20:56;;;;;;;0.75;0.75;;;;;;;10.46;85.63;97022.69;5086566;28;20076;-70
2023/05/15 01:23:32;;;;;;;0.80;0.80;;;;;;;10.47;85.46;97024.34;5079980;28;20070;-73
2023/05/15 01:26:25;;;;;;;0.68;0.68;;;;;;;10.47;85.49;97022.50;5067922;28;20039;-72
2023/05/15 01:28:57;;;;;;;0.70;0.70;;;;;;;10.55;85.21;97021.44;5069944;28;20040;-72
2023/05/15 01:31:26;;;;;;;0.57;0.57;;;;;;;10.48;85.44;97018.78;5061468;28;20048;-71
2023/05/15 01:33:56;;;;;;;0.70;0.65;;;;;;;10.49;85.62;97027.59;5067016;28;20298;-71
2023/05/15 01:36:27;;;;;;;0.52;0.52;;;;;;;10.51;85.23;97017.53;5063247;28;20060;-71
2023/05/15 01:38:57;;;;;;;0.77;0.77;;;;;;;10.46;85.53;97012.84;5061924;28;20033;-71
2023/05/15 01:41:28;;;;;;;0.73;0.73;;;;;;;10.50;85.35;97007.88;5070782;28;20052;-71
2023/05/15 01:44:01;;;;;;;0.57;0.57;;;;;;;10.47;85.15;97016.34;5069016;28;20051;-71
2023/05/15 01:46:31;;;;;;;0.80;0.80;;;;;;;10.45;85.54;97010.38;5070075;28;20044;-71
2023/05/15 01:49:00;;;;;;;0.63;0.63;;;;;;;10.50;85.30;97014.03;5061217;28;20135;-71
2023/05/15 01:51:28;;;;;;;0.15;0.15;;;;;;;10.55;85.24;97011.59;5068233;28;20410;-71
2023/05/15 01:53:58;;;;;;;0.60;0.60;;;;;;;10.52;84.95;97006.66;5068661;28;20522;-71
2023/05/15 01:56:26;;;;;;;0.70;0.70;;;;;;;10.48;85.53;97004.63;5075837;28;20049;-71
2023/05/15 01:58:54;;;;;;;0.68;0.68;;;;;;;10.42;85.20;97000.94;5045481;28;20040;-71
2023/05/15 02:01:23;;;;;;;0.77;0.77;;;;;;;10.55;84.81;96995.56;5072247;28;20037;-72
2023/05/15 02:03:51;;;;;;;0.68;0.68;;;;;;;10.55;84.77;96995.56;5047790;28;20555;-71
2023/05/15 02:06:20;;;;;;;0.85;0.85;;;;;;;10.35;85.54;97000.13;5076654;28;20450;-71
2023/05/15 02:08:48;;;;;;;0.70;0.70;;;;;;;10.07;86.75;96992.31;5063121;28;20040;-71
2023/05/15 02:11:15;;;;;;;0.65;0.65;;;;;;;10.18;86.84;96990.91;5064905;28;20067;-71
2023/05/15 02:13:45;;;;;;;0.50;0.50;;;;;;;10.34;85.83;96995.81;5063574;28;20051;-71
2023/05/15 02:16:13;;;;;;;0.70;0.70;;;;;;;10.32;86.13;96983.72;5066446;28;20044;-70
2023/05/15 02:18:42;;;;;;;0.80;0.80;;;;;;;10.45;85.51;96976.53;5049477;28;20060;-72
2023/05/15 02:21:09;;;;;;;0.55;0.55;;;;;;;10.46;85.44;96975.50;5084641;28;20442;-69
2023/05/15 02:23:38;;;;;;;0.88;0.88;;;;;;;10.39;85.98;96974.66;5069616;28;20052;-69
2023/05/15 02:26:24;;;;;;;0.68;0.68;;;;;;;10.40;85.75;96975.50;5075594;28;20036;-70
2023/05/15 02:28:57;;;;;;;0.70;0.70;;;;;;;10.54;84.98;96972.59;5064205;28;20043;-69
2023/05/15 02:31:28;;;;;;;0.70;0.70;;;;;;;10.74;84.00;96969.84;5067478;28;20044;-70
2023/05/15 02:34:05;;;;;;;0.80;0.80;;;;;;;10.42;85.62;96968.09;5058874;28;20090;-70
2023/05/15 02:36:33;;;;;;;0.52;0.52;;;;;;;10.18;86.54;96978.41;5065996;28;20036;-69
2023/05/15 02:39:01;;;;;;;0.52;0.52;;;;;;;10.05;87.74;96969.59;5072326;28;20048;-69
2023/05/15 02:41:31;;;;;;;0.65;0.65;;;;;;;10.16;87.10;96972.44;5068346;28;20049;-69
2023/05/15 02:43:59;;;;;;;0.65;0.65;;;;;;;10.26;86.18;96961.38;5059262;28;20048;-69
2023/05/15 02:46:27;;;;;;;0.60;0.60;;;;;;;10.30;86.22;96958.06;5077084;28;20091;-69
2023/05/15 02:48:55;;;;;;;0.60;0.60;;;;;;;10.44;86.00;96960.72;5047117;28;20151;-69
2023/05/15 02:51:24;;;;;;;0.63;0.63;;;;;;;10.64;85.20;96954.28;5064129;28;20051;-69
2023/05/15 02:53:52;;;;;;;0.80;0.80;;;;;;;10.68;85.03;96949.34;5069288;28;20044;-69
2023/05/15 02:56:20;;;;;;;0.70;0.70;;;;;;;10.58;85.20;96947.13;5077394;28;20043;-69
2023/05/15 02:58:48;;;;;;;0.55;0.55;;;;;;;10.49;85.50;96950.22;5054929;28;20040;-69
2023/05/15 03:01:16;;;;;;;0.80;0.80;;;;;;;10.36;85.36;96942.28;5078422;28;20040;-69
2023/05/15 03:03:43;;;;;;;0.65;0.65;;;;;;;10.31;85.59;96953.56;5064279;28;20068;-69
2023/05/15 03:06:11;;;;;;;0.60;0.60;;;;;;;10.31;85.44;96945.56;5072395;28;20040;-69
2023/05/15 03:08:40;;;;;;;0.20;0.20;;;;;;;10.30;85.15;96943.91;5064587;28;20455;-70
2023/05/15 03:11:07;;;;;;;0.80;0.80;;;;;;;10.26;85.26;96940.03;5068648;28;20032;-70
2023/05/15 03:13:35;;;;;;;0.60;0.60;;;;;;;10.24;85.08;96940.25;5073391;28;20074;-70
2023/05/15 03:16:02;;;;;;;0.73;0.73;;;;;;;10.22;85.25;96942.28;5075437;28;20040;-70
2023/05/15 03:18:30;;;;;;;0.68;0.68;;;;;;;10.16;85.48;96937.78;5070139;28;20083;-70
2023/05/15 03:20:57;;;;;;;0.80;0.80;;;;;;;10.19;85.18;96934.69;5067312;28;20043;-70
2023/05/15 03:23:25;;;;;;;0.60;0.60;;;;;;;10.16;85.21;96932.44;5067704;28;20546;-70
2023/05/15 03:25:54;;;;;;;0.73;0.73;;;;;;;10.13;85.48;96927.53;5067680;28;20068;-70
2023/05/15 03:28:22;;;;;;;0.80;0.80;;;;;;;10.13;85.46;96932.84;5078628;28;20043;-70
2023/05/15 03:30:49;;;;;;;0.57;0.57;;;;;;;10.10;85.47;96925.25;5068172;28;20040;-70
2023/05/15 03:33:17;;;;;;;0.95;0.95;;;;;;;10.13;85.80;96926.69;5063160;28;20110;-69
2023/05/15 03:35:44;;;;;;;0.80;0.80;;;;;;;10.22;85.11;96923.63;5065914;28;20044;-69
2023/05/15 03:38:12;;;;;;;0.65;0.65;;;;;;;10.20;85.07;96928.34;5069299;28;20040;-72
2023/05/15 03:40:39;;;;;;;0.60;0.60;;;;;;;10.18;85.20;96919.72;5070038;28;20091;-71
2023/05/15 03:43:08;;;;;;;0.65;0.65;;;;;;;10.19;85.25;96928.56;5068175;28;20068;-69
2023/05/15 03:45:36;;;;;;;0.75;0.75;;;;;;;10.13;85.48;96930.19;5068934;28;20577;-69
2023/05/15 03:48:04;;;;;;;0.75;0.75;;;;;;;9.99;86.13;96927.75;5062878;28;20099;-69
2023/05/15 03:50:32;;;;;;;0.73;0.73;;;;;;;10.05;85.97;96930.41;5070459;28;20461;-69
2023/05/15 03:52:59;;;;;;;0.50;0.50;;;;;;;10.08;85.71;96937.97;5074587;28;20040;-69
2023/05/15 03:55:27;;;;;;;0.47;0.47;;;;;;;10.14;85.31;96933.66;5069141;28;20472;-69
2023/05/15 03:57:54;;;;;;;0.60;0.60;;;;;;;10.19;85.50;96933.88;5068341;28;20036;-69
2023/05/15 04:00:24;;;;;;;0.63;0.63;;;;;;;10.11;85.34;96934.91;5071614;28;20063;-69
2023/05/15 04:02:51;;;;;;;0.93;0.93;;;;;;;10.02;86.12;96935.31;5074301;28;20036;-71
2023/05/15 04:05:20;;;;;;;1.27;0.63;;;;;;;9.95;86.22;96932.69;5068269;28;20072;-69
2023/05/15 04:07:48;;;;;;;0.60;0.60;;;;;;;9.98;86.02;96926.09;5075080;28;20059;-69
2023/05/15 04:10:15;;;;;;;0.85;0.85;;;;;;;9.98;86.16;96928.75;5063025;28;20049;-69
2023/05/15 04:12:43;;;;;;;0.60;0.60;;;;;;;9.98;86.16;96926.09;5071586;28;20063;-69
2023/05/15 04:15:15;;;;;;;0.43;0.43;;;;;;;10.04;85.85;96923.44;5067972;28;20049;-69
2023/05/15 04:17:44;;;;;;;;;;;;;;;10.06;85.88;96926.72;5072910;28;20051;-69
2023/05/15 04:20:14;;;;;;;1.02;1.02;;;;;;;10.17;85.83;96928.75;5075660;28;19921;-69
2023/05/15 04:22:42;;;;;;;0.65;0.65;;;;;;;10.22;85.20;96926.28;5071760;28;20119;-69
2023/05/15 04:25:10;;;;;;;0.75;0.75;;;;;;;10.07;85.80;96923.00;5073292;28;20085;-70
2023/05/15 04:27:38;;;;;;;0.80;0.80;;;;;;;10.20;85.64;96930.19;5067980;28;20225;-70
2023/05/15 04:30:07;;;;;;;0.73;0.73;;;;;;;10.28;85.42;96925.44;5086016;28;20484;-69
2023/05/15 04:32:36;;;;;;;0.73;0.73;;;;;;;10.27;84.81;96925.69;5067436;28;20041;-70
2023/05/15 04:35:08;;;;;;;0.50;0.50;;;;;;;10.33;84.93;96921.34;5077621;28;20044;-69
2023/05/15 04:37:37;;;;;;;0.75;0.75;;;;;;;10.30;84.30;96933.25;5073369;28;20489;-70
2023/05/15 04:40:06;;;;;;;0.60;0.60;;;;;;;10.19;84.60;96924.03;5070834;28;20044;-70
2023/05/15 04:42:36;;;;;;;0.60;0.60;;;;;;;10.06;85.79;96931.22;5065588;28;20044;-71
2023/05/15 04:45:08;;;;;;;0.60;0.60;;;;;;;10.11;85.42;96931.41;5060043;28;20119;-70
2023/05/15 04:47:35;;;;;;;0.73;0.73;;;;;;;10.06;85.76;96932.06;5081995;28;20051;-72
2023/05/15 04:50:05;;;;;;;0.50;0.50;;;;;;;10.07;85.97;96927.53;5071625;28;20051;-70
2023/05/15 04:52:33;;;;;;;0.65;0.65;;;;;;;10.15;85.54;96924.66;5081494;28;20062;-70
2023/05/15 04:55:01;;;;;;;0.50;0.50;;;;;;;10.33;84.84;96929.34;5069591;28;20047;-70
2023/05/15 04:57:29;;;;;;;0.85;0.85;;;;;;;10.16;85.57;96929.78;5069633;28;20052;-71
2023/05/15 04:59:57;;;;;;;0.70;0.70;;;;;;;10.27;84.89;96934.50;5072441;28;20531;-70
2023/05/15 05:02:25;;;;;;;0.08;0.08;;;;;;;10.27;85.16;96923.84;5081586;28;20776;-70
2023/05/15 05:04:53;;;;;;;0.60;0.60;;;;;;;10.41;84.96;96924.59;5065651;28;20040;-70
2023/05/15 05:07:21;;;;;;;0.70;0.70;;;;;;;10.40;84.90;96927.47;5073852;28;20101;-70
2023/05/15 05:09:49;;;;;;;0.70;0.70;;;;;;;10.47;84.66;96926.44;5069923;28;20061;-70
2023/05/15 05:12:17;;;;;;;0.20;0.20;;;;;;;10.45;85.05;96925.00;5073931;28;20384;-70
2023/05/15 05:14:44;;;;;;;0.85;0.63;;;;;;;10.32;85.44;96920.53;5077500;28;20079;-70
2023/05/15 05:17:12;;;;;;;0.60;0.60;;;;;;;10.40;85.54;96917.63;5067592;28;20102;-70
2023/05/15 05:19:40;;;;;;;0.52;0.52;;;;;;;10.52;84.74;96915.13;5072807;28;20102;-70
2023/05/15 05:22:08;;;;;;;0.50;0.50;;;;;;;10.46;84.50;96916.81;5064861;28;20094;-70
2023/05/15 05:24:37;;;;;;;0.95;0.95;;;;;;;10.53;84.48;96909.56;5070486;28;20113;-70
2023/05/15 05:27:05;;;;;;;0.63;0.63;;;;;;;10.57;84.45;96913.47;5061249;28;20033;-71
2023/05/15 05:29:33;;;;;;;0.60;0.60;;;;;;;10.61;84.38;96914.66;5072311;28;20044;-70
2023/05/15 05:32:00;;;;;;;0.77;0.77;;;;;;;10.84;84.10;96913.34;5068876;28;20037;-72
2023/05/15 05:34:28;;;;;;;0.52;0.52;;;;;;;10.80;83.50;96906.78;5071470;28;20043;-71
2023/05/15 05:36:55;;;;;;;0.77;0.77;;;;;;;10.94;83.32;96911.03;5076907;28;20040;-71
2023/05/15 05:39:23;;;;;;;0.55;0.55;;;;;;;10.98;83.23;96910.41;5076062;28;20110;-71
2023/05/15 05:41:52;;;;;;;0.65;0.65;;;;;;;11.02;82.82;96906.25;5077069;28;20103;-71
2023/05/15 05:44:19;;;;;;;0.65;0.65;;;;;;;11.09;83.04;96916.09;5072664;28;20593;-71
2023/05/15 05:46:47;;;;;;;0.82;0.82;;;;;;;11.14;82.91;96919.75;5072499;28;20037;-70
2023/05/15 05:49:14;;;;;;;0.60;0.60;;;;;;;11.22;82.64;96907.97;5074451;28;20048;-71
2023/05/15 05:51:42;;;;;;;0.68;0.68;;;;;;;11.38;82.27;96916.31;5073634;28;20108;-71
2023/05/15 05:54:10;;;;;;;0.25;0.25;;;;;;;11.32;82.07;96917.16;5077228;28;20453;-71
2023/05/15 05:56:37;;;;;;;0.80;0.80;;;;;;;11.33;82.03;96913.44;5078232;28;20102;-71
2023/05/15 05:59:06;;;;;;;0.65;0.65;;;;;;;11.44;81.98;96914.63;5081854;28;20044;-71
2023/05/15 06:01:34;;;;;;;0.70;0.70;;;;;;;11.42;81.99;96919.34;5070358;28;20041;-71
2023/05/15 06:04:01;;;;;;;0.70;0.70;;;;;;;11.38;82.08;96915.50;5064894;28;20048;-70
2023/05/15 06:06:29;;;;;;;0.80;0.80;;;;;;;11.44;81.96;96913.78;5068806;28;20136;-70
2023/05/15 06:08:57;;;;;;;0.75;0.75;;;;;;;11.57;81.29;96905.69;5078858;28;20052;-71
2023/05/15 06:11:24;;;;;;;0.60;0.60;;;;;;;11.63;81.59;96907.47;5066738;28;20102;-70
2023/05/15 06:13:52;;;;;;;0.63;0.63;;;;;;;11.70;80.76;96902.91;5065722;28;20091;-72
2023/05/15 06:16:21;;;;;;;0.70;0.70;;;;;;;11.83;80.61;96902.84;5076827;28;20040;-70
2023/05/15 06:18:49;;;;;;;0.70;0.70;;;;;;;11.93;80.29;96896.97;5073613;28;20044;-70
2023/05/15 06:21:16;;;;;;;0.60;0.60;;;;;;;12.04;79.39;96905.06;5064600;28;20071;-70
2023/05/15 06:23:44;;;;;;;0.90;0.90;;;;;;;12.06;79.02;96900.31;5066376;28;20037;-70
2023/05/15 06:26:12;;;;;;;0.60;0.60;;;;;;;12.06;79.48;96907.53;5072487;28;20040;-70
2023/05/15 06:28:39;;;;;;;0.93;0.93;;;;;;;12.15;78.99;96897.38;5066930;28;20044;-70
2023/05/15 06:31:07;;;;;;;0.63;0.63;;;;;;;12.19;78.93;96899.38;5070180;28;20102;-70
2023/05/15 06:33:36;;;;;;;0.20;0.20;;;;;;;12.21;78.52;96893.81;5072472;28;20396;-70
2023/05/15 06:36:03;;;;;;;0.85;0.85;;;;;;;12.35;78.55;96898.00;5075669;28;20055;-70
2023/05/15 06:38:31;;;;;;;0.75;0.75;;;;;;;12.32;78.16;96895.75;5068144;28;20136;-70
2023/05/15 06:40:58;;;;;;;0.70;0.70;;;;;;;12.36;78.50;96891.56;5067783;28;20396;-70
2023/05/15 06:43:26;;;;;;;0.57;0.57;;;;;;;12.42;77.96;96890.69;5076193;28;20330;-70
2023/05/15 06:45:54;;;;;;;0.55;0.55;;;;;;;12.49;77.90;96891.44;5076095;28;20040;-70
2023/05/15 06:48:21;;;;;;;0.60;0.60;;;;;;;12.60;77.55;96879.97;5068259;28;20044;-70
2023/05/15 06:50:51;;;;;;;0.52;0.52;;;;;;;12.70;77.46;96888.28;5071993;28;20048;-70
2023/05/15 06:53:19;;;;;;;0.60;0.60;;;;;;;12.87;77.20;96889.28;5062749;28;20048;-70
2023/05/15 06:55:47;;;;;;;0.70;0.70;;;;;;;13.00;76.46;96892.84;5069556;28;20492;-70
2023/05/15 06:58:16;;;;;;;0.20;0.20;;;;;;;13.10;75.39;96885.88;5061978;28;20420;-70
2023/05/15 07:00:44;;;;;;;0.63;0.63;;;;;;;13.17;76.00;96888.53;5068930;28;20055;-70
2023/05/15 07:03:13;;;;;;;0.50;0.50;;;;;;;13.22;75.53;96885.97;5064747;28;20041;-70
2023/05/15 07:05:41;;;;;;;0.10;0.10;;;;;;;13.38;75.72;96871.91;5070065;28;20427;-70
2023/05/15 07:08:10;;;;;;;0.63;0.63;;;;;;;13.53;75.19;96877.63;5067539;28;20130;-70
2023/05/15 07:10:37;;;;;;;0.60;0.60;;;;;;;13.56;74.48;96871.81;5071590;28;20044;-70
2023/05/15 07:13:05;;;;;;;0.55;0.55;;;;;;;13.56;74.67;96876.38;5064331;28;20044;-70
2023/05/15 07:15:32;;;;;;;0.63;0.63;;;;;;;13.75;74.98;96885.13;5064835;28;20044;-70
2023/05/15 07:18:00;;;;;;;0.65;0.65;;;;;;;13.92;74.51;96869.97;5080842;28;20082;-70
2023/05/15 07:20:28;;;;;;;0.63;0.63;;;;;;;14.09;74.03;96878.97;5072178;28;20056;-70
2023/05/15 07:22:58;;;;;;;0.68;0.68;;;;;;;14.21;73.44;96879.78;5071389;28;20500;-70
2023/05/15 07:25:27;;;;;;;0.57;0.57;;;;;;;14.38;72.46;96881.72;5066040;28;20048;-69
2023/05/15 07:27:55;;;;;;;0.50;0.50;;;;;;;14.50;71.79;96874.50;5056849;28;20115;-70
2023/05/15 07:30:23;;;;;;;0.80;0.80;;;;;;;14.65;71.72;96874.78;5074151;28;20155;-70
2023/05/15 07:32:51;;;;;;;0.70;0.70;;;;;;;14.82;70.65;96874.88;5072794;28;20395;-70
2023/05/15 07:35:19;;;;;;;0.60;0.60;;;;;;;14.94;69.48;96872.97;5072568;28;20070;-70
2023/05/15 07:37:46;;;;;;;0.68;0.68;;;;;;;15.08;68.92;96866.22;5073686;28;20059;-70
2023/05/15 07:40:14;;;;;;;0.68;0.68;;;;;;;15.23;69.07;96871.06;5067579;28;20126;-70
2023/05/15 07:42:44;;;;;;;0.63;0.63;;;;;;;15.49;68.53;96875.00;5065030;28;20094;-70
2023/05/15 07:45:11;;;;;;;0.60;0.60;;;;;;;15.65;66.67;96866.16;5060076;28;20056;-70
2023/05/15 07:47:41;;;;;;;0.60;0.60;;;;;;;15.91;67.21;96870.88;5074937;28;20051;-72
2023/05/15 07:50:10;;;;;;;0.60;0.60;;;;;;;16.11;61.95;96865.78;5070403;28;20044;-72
2023/05/15 07:52:37;;;;;;;0.57;0.57;;;;;;;16.29;61.49;96871.97;5066931;28;20040;-72
2023/05/15 07:55:06;;;;;;;0.63;0.63;;;;;;;16.50;60.51;96863.09;5065470;28;20044;-71
2023/05/15 07:57:33;;;;;;;0.60;0.60;;;;;;;16.67;60.60;96866.56;5075856;28;20040;-71
2023/05/15 08:00:08;;;;;;;0.40;0.40;;;;;;;16.93;60.16;96864.16;5068321;28;20127;-71
2023/05/15 08:02:39;;;;;;;0.30;0.30;;;;;;;17.04;58.35;96860.50;5065341;28;20037;-72
2023/05/15 08:05:07;;;;;;;0.50;0.50;;;;;;;17.21;58.34;96863.94;5058721;28;20037;-72
2023/05/15 08:07:35;;;;;;;0.52;0.52;;;;;;;17.30;58.42;96865.09;5063843;28;20051;-72
2023/05/15 08:10:04;;;;;;;0.40;0.40;;;;;;;17.32;59.00;96862.16;5068622;28;20045;-71
2023/05/15 08:12:32;;;;;;;0.73;0.73;;;;;;;17.44;58.28;96862.81;5083798;28;20093;-72
2023/05/15 08:15:00;;;;;;;0.10;0.10;;;;;;;17.43;57.12;96862.00;5065908;28;20515;-71
2023/05/15 08:17:29;;;;;;;0.45;0.45;;;;;;;17.57;57.59;96859.66;5074159;28;20048;-72
2023/05/15 08:19:56;;;;;;;0.55;0.55;;;;;;;17.52;55.50;96851.53;5066370;28;20044;-72
2023/05/15 08:22:24;;;;;;;0.30;0.30;;;;;;;17.38;57.04;96861.94;5065141;28;20057;-72
2023/05/15 08:24:51;;;;;;;0.47;0.47;;;;;;;17.41;57.06;96856.03;5064551;28;20032;-72
2023/05/15 08:27:19;;;;;;;0.55;0.55;;;;;;;17.29;55.45;96860.75;5066546;28;20047;-72
2023/05/15 08:29:47;;;;;;;0.60;0.60;;;;;;;17.27;55.23;96854.00;5069985;28;20048;-72
2023/05/15 08:32:15;;;;;;;0.47;0.47;;;;;;;17.21;55.54;96855.84;5074134;28;20041;-72
2023/05/15 08:34:44;;;;;;;0.40;0.40;;;;;;;17.39;54.94;96846.56;5104564;22;20084;-72
2023/05/15 08:37:11;;;;;;;0.50;0.50;;;;;;;17.45;53.94;96845.50;5073814;28;20059;-72
2023/05/15 08:39:39;;;;;;;0.40;0.40;;;;;;;17.44;53.19;96835.81;5069951;28;20036;-72
2023/05/15 08:42:09;;;;;;;0.40;0.40;;;;;;;17.57;53.77;96838.06;5073244;28;20052;-72
2023/05/15 08:44:38;;;;;;;0.40;0.40;;;;;;;17.88;53.34;96841.84;5069713;28;20044;-72
2023/05/15 08:47:06;;;;;;;0.50;0.50;;;;;;;18.10;52.70;96837.13;5065881;28;20089;-72
2023/05/15 08:49:39;;;;;;;0.45;0.45;;;;;;;18.42;52.34;96828.94;5064336;28;20116;-72
2023/05/15 08:52:10;;;;;;;0.40;0.40;;;;;;;18.57;51.68;96837.16;5066466;28;20049;-74
2023/05/15 08:54:38;;;;;;;0.30;0.30;;;;;;;18.72;50.56;96832.84;5060247;28;20065;-72
2023/05/15 08:57:07;;;;;;;0.55;0.55;;;;;;;18.51;50.66;96829.22;5069817;28;20525;-72
2023/05/15 08:59:34;;;;;;;0.43;0.43;;;;;;;18.16;50.88;96832.59;5068645;28;20052;-73
2023/05/15 09:02:02;;;;;;;0.45;0.45;;;;;;;18.49;50.23;96825.97;5078318;28;20074;-72
2023/05/15 09:04:30;;;;;;;0.10;0.10;;;;;;;17.64;50.65;96821.72;5064034;28;20348;-72
2023/05/15 09:06:59;;;;;;;0.40;0.40;;;;;;;17.56;52.00;96831.84;5067253;28;20036;-73
2023/05/15 09:09:29;;;;;;;0.50;0.50;;;;;;;17.75;52.08;96832.31;5070148;28;20052;-72
2023/05/15 09:11:58;;;;;;;0.30;0.30;;;;;;;17.67;51.21;96824.69;5067818;28;20039;-72
2023/05/15 09:14:26;;;;;;;0.10;0.10;;;;;;;17.46;51.58;96826.38;5078892;28;20426;-72
2023/05/15 09:16:53;;;;;;;0.50;0.50;;;;;;;17.34;52.62;96828.44;5069202;28;20036;-72
2023/05/15 09:19:22;;;;;;;0.38;0.38;;;;;;;17.31;52.89;96833.53;5078198;28;20044;-72
2023/05/15 09:21:49;;;;;;;0.40;0.40;;;;;;;17.27;52.10;96832.41;5068075;28;20068;-71
2023/05/15 09:24:20;;;;;;;0.40;0.40;;;;;;;17.02;52.83;96828.41;5068873;28;20515;-72
2023/05/15 09:27:01;;;;;;;0.43;0.43;;;;;;;17.02;52.13;96833.00;5062541;28;20049;-72
2023/05/15 09:29:31;;;;;;;0.20;0.20;;;;;;;17.16;52.72;96826.91;5076465;28;20071;-72
2023/05/15 09:32:02;;;;;;;0.47;0.47;;;;;;;16.62;53.25;96823.38;5067790;28;20491;-72
2023/05/15 09:34:31;;;;;;;0.50;0.50;;;;;;;16.79;52.35;96816.03;5070490;28;20156;-72
2023/05/15 09:36:58;;;;;;;0.60;0.60;;;;;;;16.67;53.30;96823.44;5068399;28;20085;-72
2023/05/15 09:39:26;;;;;;;0.40;0.40;;;;;;;16.63;54.28;96821.50;5076622;28;20048;-71
2023/05/15 09:42:05;;;;;;;0.43;0.43;;;;;;;16.80;53.66;96827.63;5066009;28;20074;-71
2023/05/15 09:44:33;;;;;;;0.40;0.40;;;;;;;16.70;53.60;96817.56;5077581;28;20385;-73
2023/05/15 09:47:01;;;;;;;0.43;0.43;;;;;;;16.73;53.75;96818.91;5075672;28;20052;-73
2023/05/15 09:49:29;;;;;;;0.40;0.40;;;;;;;16.76;54.02;96823.81;5061676;28;20040;-72
2023/05/15 09:51:59;;;;;;;0.45;0.45;;;;;;;16.95;53.08;96826.97;5070988;28;20048;-73
2023/05/15 09:54:28;;;;;;;0.52;0.52;;;;;;;17.07;52.23;96830.34;5069812;28;20083;-73
2023/05/15 09:57:07;;;;;;;0.40;0.40;;;;;;;16.97;52.65;96824.84;5070606;28;20451;-73
2023/05/15 09:59:35;;;;;;;0.57;0.57;;;;;;;16.96;53.35;96824.03;5074700;28;20060;-73
2023/05/15 10:02:02;;;;;;;0.60;0.60;;;;;;;17.13;53.41;96824.72;5073418;28;20032;-71
2023/05/15 10:04:34;;;;;;;0.70;0.70;;;;;;;17.36;52.35;96810.09;5063140;28;20487;-71
2023/05/15 10:07:02;;;;;;;0.10;0.10;;;;;;;17.41;51.35;96810.16;5069599;28;20384;-73
2023/05/15 10:09:30;;;;;;;0.40;0.40;;;;;;;17.74;51.00;96810.97;5066560;28;20052;-71
2023/05/15 10:11:59;;;;;;;0.38;0.38;;;;;;;17.48;51.05;96805.34;5068466;28;20056;-71
2023/05/15 10:14:27;;;;;;;0.50;0.50;;;;;;;18.05;49.84;96801.19;5074435;28;20041;-73
2023/05/15 10:16:55;;;;;;;0.55;0.55;;;;;;;18.27;48.50;96801.84;5069040;28;20044;-73
2023/05/15 10:19:25;;;;;;;0.10;0.10;;;;;;;18.35;47.58;96809.44;5069942;28;20438;-73
2023/05/15 10:21:53;;;;;;;0.10;0.10;;;;;;;18.08;47.30;96808.75;5060838;28;20603;-71
2023/05/15 10:24:21;;;;;;;0.55;0.55;;;;;;;18.17;47.55;96801.81;5067285;28;20037;-73
2023/05/15 10:26:49;;;;;;;0.32;0.32;;;;;;;18.25;48.83;96814.81;5073384;28;20048;-73
2023/05/15 10:29:19;;;;;;;0.68;0.68;;;;;;;18.32;49.36;96816.19;5048056;28;20051;-72
2023/05/15 10:31:48;;;;;;;0.50;0.50;;;;;;;18.20;50.12;96812.88;5070542;28;20047;-73
2023/05/15 10:34:16;;;;;;;0.40;0.40;;;;;;;18.11;50.70;96805.53;5065316;28;20041;-72
2023/05/15 10:36:44;;;;;;;0.40;0.40;;;;;;;18.08;51.07;96806.88;5078773;28;20094;-71
2023/05/15 10:39:11;;;;;;;0.40;0.40;;;;;;;18.06;51.31;96800.94;5067291;28;20121;-72
2023/05/15 10:41:40;;;;;;;0.55;0.55;;;;;;;17.95;51.45;96810.88;5068231;28;20491;-74
2023/05/15 10:44:08;;;;;;;0.52;0.52;;;;;;;17.87;52.24;96803.22;5062482;28;20141;-71
2023/05/15 10:46:37;;;;;;;0.57;0.57;;;;;;;17.88;52.27;96814.84;5064620;28;20041;-72
2023/05/15 10:49:05;;;;;;;0.50;0.50;;;;;;;17.85;52.17;96808.09;5069845;28;20514;-73
2023/05/15 10:51:35;;;;;;;0.50;0.50;;;;;;;17.92;51.84;96824.06;5076508;28;20045;-71
2023/05/15 10:54:03;;;;;;;0.50;0.50;;;;;;;18.09;50.39;96813.06;5068402;28;20537;-73
2023/05/15 10:56:32;;;;;;;0.47;0.47;;;;;;;17.93;49.71;96818.41;5048969;28;20044;-71
2023/05/15 10:59:05;;;;;;;0.45;0.40;;;;;;;18.16;50.29;96806.38;5070496;28;20048;-71
2023/05/15 11:01:34;;;;;;;0.52;0.52;;;;;;;18.28;51.89;96816.97;5079904;28;20055;-72
2023/05/15 11:04:11;;;;;;;0.47;0.47;;;;;;;18.43;51.45;96811.63;5074101;28;20159;-71
2023/05/15 11:06:40;;;;;;;0.57;0.57;;;;;;;18.52;50.03;96807.34;5064281;28;20076;-74
2023/05/15 11:09:33;;;;;;;0.60;0.60;;;;;;;18.43;49.30;96803.53;5067217;28;20119;-73
2023/05/15 11:12:01;;;;;;;0.50;0.50;;;;;;;18.34;49.90;96805.13;5063326;28;20036;-73
2023/05/15 11:14:30;;;;;;;0.40;0.40;;;;;;;18.23;49.89;96803.44;5064050;28;20049;-73
2023/05/15 11:17:04;;;;;;;0.50;0.50;;;;;;;18.12;50.57;96799.88;5071381;28;20036;-73
2023/05/15 11:19:36;;;;;;;0.47;0.47;;;;;;;18.10;51.25;96803.91;5064892;28;20565;-72
2023/05/15 11:22:16;;;;;;;0.43;0.43;;;;;;;18.08;51.70;96795.25;5070426;28;20043;-71
2023/05/15 11:24:54;;;;;;;0.10;0.10;;;;;;;18.19;51.41;96797.75;5066329;28;20428;-72
2023/05/15 11:27:23;;;;;;;0.55;0.55;;;;;;;18.16;51.03;96792.06;5065016;28;20507;-72
2023/05/15 11:30:11;;;;;;;0.45;0.43;;;;;;;18.32;50.82;96791.06;5066707;28;20098;-72
2023/05/15 11:32:49;;;;;;;0.30;0.30;;;;;;;18.41;50.19;96788.66;5075061;28;20082;-74
2023/05/15 11:35:23;;;;;;;0.28;0.28;;;;;;;18.48;49.80;96795.44;5070138;28;20067;-73
2023/05/15 11:37:53;;;;;;;0.40;0.40;;;;;;;18.69;49.57;96793.63;5060385;28;20052;-73
2023/05/15 11:40:22;;;;;;;0.60;0.60;;;;;;;18.47;50.16;96790.31;5054159;28;20055;-73
2023/05/15 11:43:08;;;;;;;0.40;0.40;;;;;;;18.28;51.45;96795.34;5061812;28;20067;-72